Terminal Aerodrome Forecast
Issued by NWS Duluth, MN

Home | Current Version | Previous Version | Text Only | Print | Product List | Glossary On
Versions: 1 2 3 4 5 6 7 8 9 10 11 12 13 14 15 16 17 18 19 20 21 22 23 24 25 26 27 28 29 30 31 32 33 34 35 36 37 38 39 40 41 42 43 44 45 46 47 48
000
FTUS43 KDLH 291900 AAB
TAFDLH
TAF AMD
KDLH 291925Z 2919/3018 09010KT P6SM OVC008
      TEMPO 2923/3002 SCT008 BKN014
     FM300600 10007KT 3SM BR OVC006
     FM301500 10008KT P6SM BKN010=

USA.gov is the U.S. government's official web portal to all federal, state and local government web resources and services.